CheckWX is a tool to help pilots better visualize weather data.  It is not intended as a substitute for an official pre-flight weather briefing.

02:55:53 UTC

KFBR METAR
Fort Bridger Airport
Fort Bridger, Wyoming, USA
Current

19 mins ago

KFBR 240237Z AUTO 27006KT 10SM SCT085 01/M02 A3008 RMK AO2
Observed
Mar-24 @ 02:37 UTC
Wind
  • 270° at 6 KTS
Visibility
10 SM
Flight Rules
VFR
Cloud Levels
  • Scattered at 8,500' AGL
Temperature
C / 34°F
Dewpoint
-2°C / 28°F
Humidity
81%
Altimeter
30.08" Hg
Pressure
1018.62 hPa
Previous

58 mins ago

KFBR 240158Z AUTO 26007KT 10SM CLR 02/M02 A3008 RMK AO2
Observed
Mar-24 @ 01:58 UTC
Wind
  • 260° at 7 KTS
Visibility
10 SM
Flight Rules
VFR
Cloud Levels
  • Clear skies
Temperature
C / 36°F
Dewpoint
-2°C / 28°F
Humidity
75%
Altimeter
30.08" Hg
Pressure
1018.62 hPa
Previous

1 hour ago

KFBR 240138Z AUTO 25008KT 10SM CLR 02/M02 A3008 RMK AO2
Observed
Mar-24 @ 01:38 UTC
Wind
  • 250° at 8 KTS
Visibility
10 SM
Flight Rules
VFR
Cloud Levels
  • Clear skies
Temperature
C / 36°F
Dewpoint
-2°C / 28°F
Humidity
75%
Altimeter
30.08" Hg
Pressure
1018.62 hPa